createdAt,value
2023-05-08T00:08:48.968Z,9.30
2023-05-08T00:18:53.771Z,7.70
2023-05-08T00:28:56.934Z,7.70
2023-05-08T00:39:00.043Z,8.30
2023-05-08T00:49:05.331Z,9.00
2023-05-08T00:59:10.530Z,10.90
2023-05-08T01:09:13.703Z,13.40
2023-05-08T01:19:38.108Z,10.30
2023-05-08T01:30:00.204Z,14.60
2023-05-08T01:40:20.746Z,15.40
2023-05-08T01:50:33.329Z,11.70
2023-05-08T02:00:40.960Z,10.20
2023-05-08T02:10:46.613Z,9.50
2023-05-08T02:20:51.975Z,9.10
2023-05-08T02:30:56.817Z,6.70
2023-05-08T02:41:03.861Z,8.20
2023-05-08T02:51:29.650Z,8.60
2023-05-08T03:01:48.551Z,8.40
2023-05-08T03:12:10.216Z,8.80
2023-05-08T03:22:16.268Z,8.50
2023-05-08T03:32:21.507Z,7.90
2023-05-08T03:42:26.434Z,8.00
2023-05-08T03:52:30.563Z,6.30
2023-05-08T04:02:57.801Z,7.40
2023-05-08T04:13:10.960Z,7.60
2023-05-08T04:23:22.092Z,10.80
2023-05-08T04:33:27.681Z,9.80
2023-05-08T04:43:31.156Z,6.80
2023-05-08T04:53:34.309Z,12.00
2023-05-08T05:03:38.101Z,12.90
2023-05-08T05:13:41.757Z,7.50
2023-05-08T05:23:44.962Z,9.40
2023-05-08T05:33:48.123Z,8.50
2023-05-08T05:43:51.801Z,9.20
2023-05-08T05:53:55.449Z,10.10
2023-05-08T06:03:59.412Z,8.70
2023-05-08T06:14:02.965Z,7.20
2023-05-08T06:24:07.097Z,7.60
2023-05-08T06:34:10.274Z,10.30
2023-05-08T06:44:13.473Z,9.40
2023-05-08T06:54:16.706Z,10.00
2023-05-08T07:04:20.266Z,8.80
2023-05-08T07:14:23.471Z,10.60
2023-05-08T07:24:26.530Z,8.10
2023-05-08T07:34:29.710Z,9.30
2023-05-08T07:44:43.669Z,7.90
2023-05-08T07:54:53.937Z,6.50
2023-05-08T08:04:57.131Z,7.50
2023-05-08T08:15:00.510Z,6.40
2023-05-08T08:25:03.887Z,8.30
2023-05-08T08:35:07.274Z,5.70
2023-05-08T08:45:11.481Z,5.90
2023-05-08T08:55:20.523Z,5.30
2023-05-08T09:05:26.790Z,5.20
2023-05-08T09:15:33.016Z,5.00
2023-05-08T09:25:43.576Z,4.60
2023-05-08T09:35:50.577Z,4.40
2023-05-08T09:45:53.837Z,10.30
2023-05-08T09:55:57.210Z,4.30
2023-05-08T10:06:13.771Z,6.10
2023-05-08T10:16:18.831Z,4.40
2023-05-08T10:26:27.810Z,4.60
2023-05-08T10:36:31.863Z,5.90
2023-05-08T10:46:49.597Z,5.50
2023-05-08T10:57:08.615Z,6.90
2023-05-08T11:07:11.928Z,8.80
2023-05-08T11:17:23.911Z,17.50
2023-05-08T11:27:33.691Z,14.90
2023-05-08T11:37:38.354Z,8.60
2023-05-08T11:47:43.466Z,12.40
2023-05-08T11:57:46.807Z,5.60
2023-05-08T12:07:52.283Z,12.00
2023-05-08T12:18:03.064Z,5.70
2023-05-08T12:28:07.618Z,8.00
2023-05-08T12:38:12.152Z,7.30
2023-05-08T12:48:15.801Z,5.00
2023-05-08T12:58:20.013Z,6.10
2023-05-08T13:08:37.082Z,7.70
2023-05-08T13:18:40.632Z,6.80
2023-05-08T13:28:44.232Z,5.70
2023-05-08T13:38:48.415Z,8.60
2023-05-08T13:48:52.206Z,4.20
2023-05-08T13:59:03.846Z,5.40
2023-05-08T14:09:12.695Z,4.50
2023-05-08T14:19:25.047Z,5.30
2023-05-08T14:29:34.242Z,6.10
2023-05-08T14:39:37.489Z,7.30
2023-05-08T14:49:40.791Z,3.50
2023-05-08T14:59:52.450Z,4.20
2023-05-08T15:09:58.088Z,5.80
2023-05-08T15:20:01.215Z,5.20
2023-05-08T15:30:05.565Z,10.50
2023-05-08T15:40:09.353Z,5.50
2023-05-08T15:50:12.699Z,5.60
2023-05-08T16:00:16.317Z,6.80
2023-05-08T16:10:19.568Z,5.90
2023-05-08T16:20:23.780Z,7.50
2023-05-08T16:30:27.610Z,5.80
2023-05-08T16:40:31.853Z,7.20
2023-05-08T16:50:34.967Z,6.80
2023-05-08T17:00:38.977Z,11.00
2023-05-08T17:10:44.051Z,9.00
2023-05-08T17:20:47.219Z,7.60
2023-05-08T17:30:52.893Z,9.90
2023-05-08T17:40:56.734Z,10.40
2023-05-08T17:51:02.620Z,9.80
2023-05-08T18:01:06.775Z,9.00
2023-05-08T18:11:21.367Z,52.20
2023-05-08T18:21:24.765Z,22.20
2023-05-08T18:31:28.098Z,17.30
2023-05-08T18:41:31.444Z,15.10
2023-05-08T18:51:34.772Z,18.00
2023-05-08T19:01:37.911Z,22.80
2023-05-08T19:11:41.161Z,21.90
2023-05-08T19:21:45.359Z,20.80
2023-05-08T19:31:48.619Z,21.80
2023-05-08T19:41:51.901Z,20.50
2023-05-08T19:51:55.038Z,26.70
2023-05-08T20:01:59.035Z,24.20
2023-05-08T20:12:02.199Z,26.40
2023-05-08T20:22:05.447Z,25.30
2023-05-08T20:32:08.691Z,23.30
2023-05-08T20:42:12.048Z,23.90
2023-05-08T20:52:15.158Z,26.60
2023-05-08T21:02:18.318Z,27.50
2023-05-08T21:12:21.958Z,21.70
2023-05-08T21:22:25.251Z,20.70
2023-05-08T21:32:28.485Z,25.00
2023-05-08T21:42:32.761Z,21.70
2023-05-08T21:52:36.033Z,19.50
2023-05-08T22:02:39.227Z,17.00
2023-05-08T22:12:43.910Z,15.00
2023-05-08T22:22:47.605Z,13.90
2023-05-08T22:32:57.777Z,15.30
2023-05-08T22:43:01.909Z,15.00
2023-05-08T22:53:08.388Z,15.50
2023-05-08T23:03:13.578Z,18.00
2023-05-08T23:13:16.788Z,19.10
2023-05-08T23:23:19.927Z,19.00
2023-05-08T23:33:23.370Z,17.10
2023-05-08T23:43:27.279Z,17.40
2023-05-08T23:53:30.995Z,14.10
